createdAt,value
2022-08-11T00:00:02.946Z,1019.82
2022-08-11T00:01:03.667Z,1019.82
2022-08-11T00:02:03.616Z,1019.80
2022-08-11T00:03:02.964Z,1019.79
2022-08-11T00:04:02.918Z,1019.78
2022-08-11T00:05:02.889Z,1019.81
2022-08-11T00:06:02.871Z,1019.78
2022-08-11T00:07:03.552Z,1019.77
2022-08-11T00:08:02.891Z,1019.77
2022-08-11T00:09:02.898Z,1019.79
2022-08-11T00:10:03.530Z,1019.80
2022-08-11T00:11:03.508Z,1019.80
2022-08-11T00:12:03.513Z,1019.78
2022-08-11T00:13:02.833Z,1019.79
2022-08-11T00:14:02.833Z,1019.80
2022-08-11T00:15:05.264Z,1019.76
2022-08-11T00:16:02.807Z,1019.75
2022-08-11T00:17:02.784Z,1019.79
2022-08-11T00:18:02.773Z,1019.76
2022-08-11T00:19:06.483Z,1019.79
2022-08-11T00:20:15.133Z,1019.82
2022-08-11T00:21:04.747Z,1019.81
2022-08-11T00:22:06.334Z,1019.83
2022-08-11T00:23:02.829Z,1019.84
2022-08-11T00:24:02.708Z,1019.84
2022-08-11T00:25:03.007Z,1019.81
2022-08-11T00:26:02.756Z,1019.83
2022-08-11T00:27:02.726Z,1019.83
2022-08-11T00:28:02.648Z,1019.83
2022-08-11T00:29:02.705Z,1019.86
2022-08-11T00:30:02.638Z,1019.83
2022-08-11T00:31:04.426Z,1019.82
2022-08-11T00:32:02.843Z,1019.80
2022-08-11T00:33:03.287Z,1019.78
2022-08-11T00:34:03.277Z,1019.78
2022-08-11T00:35:54.099Z,1019.78
2022-08-11T00:36:05.606Z,1019.80
2022-08-11T00:37:02.588Z,1019.79
2022-08-11T00:38:02.699Z,1019.78
2022-08-11T00:39:03.219Z,1019.79
2022-08-11T00:40:02.617Z,1019.83
2022-08-11T00:41:02.529Z,1019.84
2022-08-11T00:42:02.519Z,1019.82
2022-08-11T00:43:02.518Z,1019.80
2022-08-11T00:44:02.531Z,1019.82
2022-08-11T00:45:03.168Z,1019.81
2022-08-11T00:46:03.156Z,1019.85
2022-08-11T00:47:02.457Z,1019.82
2022-08-11T00:48:02.466Z,1019.80
2022-08-11T00:49:03.106Z,1019.81
2022-08-11T00:50:03.083Z,1019.82
2022-08-11T00:51:03.094Z,1019.82
2022-08-11T00:52:05.376Z,1019.79
2022-08-11T00:53:03.080Z,1019.78
2022-08-11T00:54:02.386Z,1019.80
2022-08-11T00:55:02.465Z,1019.79
2022-08-11T00:56:02.357Z,1019.79
2022-08-11T00:57:03.026Z,1019.80
2022-08-11T00:58:03.335Z,1019.79
2022-08-11T00:59:02.326Z,1019.79
2022-08-11T01:00:03.601Z,1019.75
2022-08-11T01:01:02.401Z,1019.73
2022-08-11T01:02:03.005Z,1019.74
2022-08-11T01:03:02.307Z,1019.73
2022-08-11T01:04:02.258Z,1019.76
2022-08-11T01:05:02.941Z,1019.71
2022-08-11T01:06:03.019Z,1019.73
2022-08-11T01:07:02.289Z,1019.76
2022-08-11T01:08:03.711Z,1019.78
2022-08-11T01:09:02.903Z,1019.76
2022-08-11T01:10:06.992Z,1019.73
2022-08-11T01:11:03.219Z,1019.71
2022-08-11T01:12:02.221Z,1019.75
2022-08-11T01:13:02.310Z,1019.78
2022-08-11T01:14:02.153Z,1019.77
2022-08-11T01:15:02.832Z,1019.75
2022-08-11T01:16:02.814Z,1019.76
2022-08-11T01:17:02.156Z,1019.72
2022-08-11T01:18:02.810Z,1019.75
2022-08-11T01:19:02.232Z,1019.74
2022-08-11T01:20:38.592Z,1019.74
2022-08-11T01:21:03.113Z,1019.74
2022-08-11T01:22:02.173Z,1019.74
2022-08-11T01:23:03.565Z,1019.78
2022-08-11T01:24:02.704Z,1019.83
2022-08-11T01:25:02.054Z,1019.86
2022-08-11T01:26:03.475Z,1019.83
2022-08-11T01:27:02.708Z,1019.83
2022-08-11T01:28:02.044Z,1019.80
2022-08-11T01:29:02.020Z,1019.79
2022-08-11T01:30:02.660Z,1019.83
2022-08-11T01:31:01.957Z,1019.84
2022-08-11T01:32:01.989Z,1019.83
2022-08-11T01:33:01.965Z,1019.81
2022-08-11T01:34:02.625Z,1019.85
2022-08-11T01:35:02.609Z,1019.86
2022-08-11T01:36:01.968Z,1019.85
2022-08-11T01:37:01.988Z,1019.83
2022-08-11T01:38:01.898Z,1019.82
2022-08-11T01:39:02.568Z,1019.80
2022-08-11T01:40:02.388Z,1019.79
2022-08-11T01:41:01.859Z,1019.80
2022-08-11T01:42:02.622Z,1019.75
2022-08-11T01:43:02.522Z,1019.79
2022-08-11T01:44:01.830Z,1019.80
2022-08-11T01:45:02.501Z,1019.78
2022-08-11T01:46:02.492Z,1019.78
2022-08-11T01:47:02.480Z,1019.76
2022-08-11T01:48:02.466Z,1019.72
2022-08-11T01:50:06.828Z,1019.73
2022-08-11T01:50:07.965Z,1019.73
2022-08-11T01:51:02.765Z,1019.67
2022-08-11T01:52:02.431Z,1019.74
2022-08-11T01:53:02.414Z,1019.72
2022-08-11T01:54:01.783Z,1019.74
2022-08-11T01:55:01.779Z,1019.75
2022-08-11T01:56:01.715Z,1019.78
2022-08-11T01:57:01.729Z,1019.79
2022-08-11T01:58:01.715Z,1019.79
2022-08-11T01:59:01.675Z,1019.81
2022-08-11T02:00:02.355Z,1019.81
2022-08-11T02:01:01.701Z,1019.83
2022-08-11T02:02:01.669Z,1019.80
2022-08-11T02:03:02.306Z,1019.84
2022-08-11T02:04:02.294Z,1019.84
2022-08-11T02:05:02.284Z,1019.82
2022-08-11T02:06:02.266Z,1019.79
2022-08-11T02:07:01.578Z,1019.83
2022-08-11T02:08:01.705Z,1019.83
2022-08-11T02:09:03.530Z,1019.88
2022-08-11T02:10:01.745Z,1019.86
2022-08-11T02:11:01.557Z,1019.85
2022-08-11T02:12:01.557Z,1019.86
2022-08-11T02:13:01.609Z,1019.85
2022-08-11T02:14:02.187Z,1019.83
2022-08-11T02:15:05.328Z,1019.85
2022-08-11T02:16:02.166Z,1019.84
2022-08-11T02:17:01.489Z,1019.86
2022-08-11T02:18:02.134Z,1019.83
2022-08-11T02:19:02.134Z,1019.84
2022-08-11T02:20:02.134Z,1019.84
2022-08-11T02:21:02.229Z,1019.79
2022-08-11T02:22:01.433Z,1019.81
2022-08-11T02:23:01.404Z,1019.82
2022-08-11T02:24:05.475Z,1019.78
2022-08-11T02:25:02.382Z,1019.77
2022-08-11T02:26:01.404Z,1019.79
2022-08-11T02:27:02.054Z,1019.80
2022-08-11T02:28:01.359Z,1019.77
2022-08-11T02:29:01.353Z,1019.76
2022-08-11T02:30:01.373Z,1019.73
2022-08-11T02:31:02.016Z,1019.75
2022-08-11T02:32:14.872Z,1019.74
2022-08-11T02:33:02.306Z,1019.73
2022-08-11T02:34:01.975Z,1019.75
2022-08-11T02:35:01.276Z,1019.76
2022-08-11T02:36:02.046Z,1019.78
2022-08-11T02:37:01.275Z,1019.77
2022-08-11T02:38:01.939Z,1019.78
2022-08-11T02:39:01.252Z,1019.77
2022-08-11T02:40:01.237Z,1019.76
2022-08-11T02:41:01.238Z,1019.77
2022-08-11T02:42:01.240Z,1019.72
2022-08-11T02:43:01.894Z,1019.73
2022-08-11T02:44:01.870Z,1019.76
2022-08-11T02:45:01.851Z,1019.78
2022-08-11T02:46:01.219Z,1019.76
2022-08-11T02:47:02.108Z,1019.78
2022-08-11T02:48:01.187Z,1019.76
2022-08-11T02:49:01.170Z,1019.73
2022-08-11T02:50:07.674Z,1019.74
2022-08-11T02:51:02.110Z,1019.75
2022-08-11T02:52:01.152Z,1019.76
2022-08-11T02:53:01.777Z,1019.78
2022-08-11T02:54:01.302Z,1019.76
2022-08-11T02:55:02.661Z,1019.73
2022-08-11T02:56:01.731Z,1019.75
2022-08-11T02:57:01.732Z,1019.75
2022-08-11T02:58:01.713Z,1019.77
2022-08-11T02:59:01.003Z,1019.77
2022-08-11T03:00:02.012Z,1019.79
2022-08-11T03:01:01.057Z,1019.81
2022-08-11T03:02:04.775Z,1019.83
2022-08-11T03:03:02.438Z,1019.85
2022-08-11T03:04:04.949Z,1019.84
2022-08-11T03:05:02.122Z,1019.84
2022-08-11T03:06:01.632Z,1019.85
2022-08-11T03:07:06.409Z,1019.87
2022-08-11T03:08:01.991Z,1019.84
2022-08-11T03:09:01.190Z,1019.85
2022-08-11T03:10:03.690Z,1019.85
2022-08-11T03:11:02.845Z,1019.85
2022-08-11T03:12:01.581Z,1019.86
2022-08-11T03:13:01.677Z,1019.87
2022-08-11T03:14:01.551Z,1019.92
2022-08-11T03:15:01.533Z,1019.87
2022-08-11T03:16:00.846Z,1019.84
2022-08-11T03:17:01.524Z,1019.89
2022-08-11T03:18:01.502Z,1019.87
2022-08-11T03:19:01.492Z,1019.88
2022-08-11T03:20:01.483Z,1019.91
2022-08-11T03:21:01.473Z,1019.88
2022-08-11T03:22:03.418Z,1019.87
2022-08-11T03:23:00.823Z,1019.93
2022-08-11T03:24:01.435Z,1019.91
2022-08-11T03:25:00.787Z,1019.89
2022-08-11T03:26:00.808Z,1019.87
2022-08-11T03:27:03.775Z,1019.88
2022-08-11T03:28:02.581Z,1019.82
2022-08-11T03:29:00.835Z,1019.84
2022-08-11T03:30:01.383Z,1019.81
2022-08-11T03:31:01.376Z,1019.81
2022-08-11T03:32:01.370Z,1019.81
2022-08-11T03:33:01.349Z,1019.81
2022-08-11T03:34:05.673Z,1019.77
2022-08-11T03:35:02.326Z,1019.81
2022-08-11T03:36:01.318Z,1019.85
2022-08-11T03:37:16.326Z,1019.78
2022-08-11T03:38:03.547Z,1019.78
2022-08-11T03:39:00.608Z,1019.81
2022-08-11T03:40:01.329Z,1019.80
2022-08-11T03:41:01.259Z,1019.82
2022-08-11T03:42:05.906Z,1019.77
2022-08-11T03:43:01.569Z,1019.79
2022-08-11T03:44:01.233Z,1019.77
2022-08-11T03:45:00.545Z,1019.77
2022-08-11T03:46:01.213Z,1019.78
2022-08-11T03:47:00.553Z,1019.80
2022-08-11T03:48:01.450Z,1019.81
2022-08-11T03:49:01.174Z,1019.80
2022-08-11T03:50:01.165Z,1019.75
2022-08-11T03:51:01.166Z,1019.75
2022-08-11T03:52:01.159Z,1019.76
2022-08-11T03:53:00.482Z,1019.75
2022-08-11T03:54:01.122Z,1019.74
2022-08-11T03:55:01.120Z,1019.77
2022-08-11T03:56:01.106Z,1019.77
2022-08-11T03:57:00.416Z,1019.71
2022-08-11T03:58:00.404Z,1019.71
2022-08-11T03:59:00.576Z,1019.68
2022-08-11T04:00:01.059Z,1019.74
2022-08-11T04:01:00.353Z,1019.74
2022-08-11T04:02:00.530Z,1019.74
2022-08-11T04:03:00.426Z,1019.73
2022-08-11T04:04:00.428Z,1019.74
2022-08-11T04:05:01.006Z,1019.76
2022-08-11T04:06:00.986Z,1019.75
2022-08-11T04:07:00.986Z,1019.75
2022-08-11T04:08:00.304Z,1019.76
2022-08-11T04:09:01.218Z,1019.72
2022-08-11T04:10:00.258Z,1019.75
2022-08-11T04:11:02.823Z,1019.77
2022-08-11T04:12:00.918Z,1019.73
2022-08-11T04:13:00.238Z,1019.77
2022-08-11T04:14:00.901Z,1019.73
2022-08-11T04:15:00.910Z,1019.71
2022-08-11T04:16:00.197Z,1019.71
2022-08-11T04:17:01.879Z,1019.67
2022-08-11T04:18:00.182Z,1019.71
2022-08-11T04:19:00.181Z,1019.73
2022-08-11T04:20:01.610Z,1019.77
2022-08-11T04:21:00.151Z,1019.74
2022-08-11T04:22:00.818Z,1019.73
2022-08-11T04:23:00.782Z,1019.69
2022-08-11T04:24:36.133Z,1019.73
2022-08-11T04:25:01.782Z,1019.73
2022-08-11T04:26:00.776Z,1019.72
2022-08-11T04:27:02.029Z,1019.68
2022-08-11T04:28:00.754Z,1019.65
2022-08-11T04:29:00.201Z,1019.68
2022-08-11T04:30:03.416Z,1019.67
2022-08-11T04:31:01.732Z,1019.65
2022-08-11T04:32:00.716Z,1019.63
2022-08-11T04:33:00.714Z,1019.63
2022-08-11T04:34:00.694Z,1019.62
2022-08-11T04:35:00.682Z,1019.64
2022-08-11T04:35:59.996Z,1019.64
2022-08-11T04:36:59.994Z,1019.63
2022-08-11T04:38:00.124Z,1019.59
2022-08-11T04:38:59.976Z,1019.66
2022-08-11T04:40:01.865Z,1019.67
2022-08-11T04:41:00.046Z,1019.67
2022-08-11T04:41:59.932Z,1019.67
2022-08-11T04:43:00.598Z,1019.65
2022-08-11T04:44:05.526Z,1019.67
2022-08-11T04:45:01.595Z,1019.64
2022-08-11T04:46:00.566Z,1019.64
2022-08-11T04:47:00.547Z,1019.62
2022-08-11T04:48:03.922Z,1019.61
2022-08-11T04:48:59.848Z,1019.59
2022-08-11T04:50:00.519Z,1019.63
2022-08-11T04:51:08.599Z,1019.67
2022-08-11T04:52:01.498Z,1019.63
2022-08-11T04:52:59.899Z,1019.58
2022-08-11T04:53:59.806Z,1019.62
2022-08-11T04:55:00.480Z,1019.65
2022-08-11T04:56:01.213Z,1019.67
2022-08-11T04:57:00.451Z,1019.70
2022-08-11T04:57:59.790Z,1019.70
2022-08-11T04:58:59.741Z,1019.71
2022-08-11T05:00:01.176Z,1019.70
2022-08-11T05:01:00.454Z,1019.71
2022-08-11T05:01:59.766Z,1019.72
2022-08-11T05:03:00.390Z,1019.68
2022-08-11T05:03:59.717Z,1019.72
2022-08-11T05:04:59.693Z,1019.71
2022-08-11T05:06:00.354Z,1019.72
2022-08-11T05:07:00.341Z,1019.74
2022-08-11T05:08:00.334Z,1019.69
2022-08-11T05:09:00.324Z,1019.74
2022-08-11T05:10:00.337Z,1019.72
2022-08-11T05:11:00.296Z,1019.71
2022-08-11T05:12:02.066Z,1019.70
2022-08-11T05:13:00.276Z,1019.70
2022-08-11T05:14:00.268Z,1019.74
2022-08-11T05:14:59.570Z,1019.72
2022-08-11T05:16:05.364Z,1019.72
2022-08-11T05:16:59.547Z,1019.72
2022-08-11T05:17:59.540Z,1019.72
2022-08-11T05:19:01.467Z,1019.69
2022-08-11T05:20:00.208Z,1019.73
2022-08-11T05:21:04.418Z,1019.71
2022-08-11T05:22:00.178Z,1019.77
2022-08-11T05:22:59.532Z,1019.73
2022-08-11T05:23:59.501Z,1019.72
2022-08-11T05:25:00.155Z,1019.73
2022-08-11T05:26:42.793Z,1019.76
2022-08-11T05:27:00.476Z,1019.79
2022-08-11T05:27:59.430Z,1019.80
2022-08-11T05:29:00.119Z,1019.79
2022-08-11T05:30:01.922Z,1019.82
2022-08-11T05:30:59.382Z,1019.84
2022-08-11T05:32:00.074Z,1019.80
2022-08-11T05:33:01.925Z,1019.86
2022-08-11T05:34:01.801Z,1019.83
2022-08-11T05:35:01.275Z,1019.88
2022-08-11T05:36:03.140Z,1019.90
2022-08-11T05:37:23.853Z,1019.90
2022-08-11T05:38:00.335Z,1019.87
2022-08-11T05:38:59.302Z,1019.91
2022-08-11T05:39:59.358Z,1019.91
2022-08-11T05:41:00.382Z,1019.92
2022-08-11T05:41:59.974Z,1019.91
2022-08-11T05:42:59.954Z,1019.95
2022-08-11T05:44:20.103Z,1019.97
2022-08-11T05:45:01.655Z,1019.93
2022-08-11T05:46:03.913Z,1020.03
2022-08-11T05:47:00.899Z,1020.02
2022-08-11T05:48:00.174Z,1020.02
2022-08-11T05:49:01.140Z,1020.06
2022-08-11T05:50:01.636Z,1020.05
2022-08-11T05:50:59.859Z,1020.03
2022-08-11T05:52:05.594Z,1020.04
2022-08-11T05:53:00.158Z,1020.05
2022-08-11T05:54:01.597Z,1020.05
2022-08-11T05:55:06.050Z,1020.03
2022-08-11T05:56:02.567Z,1020.05
2022-08-11T05:56:59.806Z,1020.06
2022-08-11T05:57:59.125Z,1020.07
2022-08-11T05:59:00.085Z,1020.06
2022-08-11T06:00:00.512Z,1020.09
2022-08-11T06:00:59.080Z,1020.10
2022-08-11T06:01:59.139Z,1020.13
2022-08-11T06:02:59.731Z,1020.14
2022-08-11T06:03:59.069Z,1020.11
2022-08-11T06:04:59.033Z,1020.17
2022-08-11T06:05:59.704Z,1020.17
2022-08-11T06:06:59.011Z,1020.13
2022-08-11T06:07:59.698Z,1020.12
2022-08-11T06:08:59.662Z,1020.09
2022-08-11T06:09:58.984Z,1020.14
2022-08-11T06:10:59.656Z,1020.13
2022-08-11T06:11:59.639Z,1020.18
2022-08-11T06:12:59.625Z,1020.14
2022-08-11T06:13:59.606Z,1020.19
2022-08-11T06:14:59.611Z,1020.23
2022-08-11T06:16:06.243Z,1020.21
2022-08-11T06:17:01.356Z,1020.24
2022-08-11T06:18:01.390Z,1020.26
2022-08-11T06:18:59.860Z,1020.30
2022-08-11T06:20:06.086Z,1020.31
2022-08-11T06:21:00.558Z,1020.32
2022-08-11T06:21:58.852Z,1020.30
2022-08-11T06:22:59.526Z,1020.32
2022-08-11T06:24:01.333Z,1020.29
2022-08-11T06:24:59.761Z,1020.32
2022-08-11T06:25:59.770Z,1020.32
2022-08-11T06:27:12.244Z,1020.33
2022-08-11T06:28:01.252Z,1020.33
2022-08-11T06:29:01.225Z,1020.35
2022-08-11T06:29:59.701Z,1020.35
2022-08-11T06:31:01.223Z,1020.36
2022-08-11T06:31:59.174Z,1020.39
2022-08-11T06:32:59.415Z,1020.39
2022-08-11T06:33:59.713Z,1020.47
2022-08-11T06:34:59.399Z,1020.53
2022-08-11T06:35:59.642Z,1020.61
2022-08-11T06:36:58.704Z,1020.60
2022-08-11T06:37:59.549Z,1020.54
2022-08-11T06:39:01.136Z,1020.47
2022-08-11T06:39:59.373Z,1020.46
2022-08-11T06:41:00.575Z,1020.48
2022-08-11T06:41:58.650Z,1020.47
2022-08-11T06:42:58.619Z,1020.51
2022-08-11T06:44:03.265Z,1020.50
2022-08-11T06:45:01.531Z,1020.51
2022-08-11T06:45:58.596Z,1020.49
2022-08-11T06:46:58.599Z,1020.47
2022-08-11T06:47:58.579Z,1020.45
2022-08-11T06:48:58.580Z,1020.45
2022-08-11T06:49:58.623Z,1020.43
2022-08-11T06:50:59.229Z,1020.45
2022-08-11T06:52:01.625Z,1020.45
2022-08-11T06:52:58.540Z,1020.54
2022-08-11T06:54:04.682Z,1020.66
2022-08-11T06:54:59.532Z,1020.68
2022-08-11T06:55:59.204Z,1020.72
2022-08-11T06:57:28.300Z,1020.74
2022-08-11T06:57:59.473Z,1020.74
2022-08-11T06:58:58.453Z,1020.82
2022-08-11T06:59:58.453Z,1020.82
2022-08-11T07:00:58.465Z,1020.91
2022-08-11T07:01:59.192Z,1020.88
2022-08-11T07:02:58.414Z,1020.82
2022-08-11T07:03:58.414Z,1020.85
2022-08-11T07:04:59.086Z,1020.90
2022-08-11T07:05:59.084Z,1020.89
2022-08-11T07:06:59.066Z,1020.76
2022-08-11T07:07:58.445Z,1020.76
2022-08-11T07:08:59.355Z,1020.71
2022-08-11T07:09:59.053Z,1020.73
2022-08-11T07:10:59.018Z,1020.68
2022-08-11T07:11:58.337Z,1020.66
2022-08-11T07:12:59.048Z,1020.72
2022-08-11T07:13:58.348Z,1020.64
2022-08-11T07:15:00.504Z,1020.54
2022-08-11T07:16:11.318Z,1020.55
2022-08-11T07:17:00.713Z,1020.53
2022-08-11T07:17:58.261Z,1020.52
2022-08-11T07:18:58.300Z,1020.54
2022-08-11T07:19:59.681Z,1020.48
2022-08-11T07:21:01.919Z,1020.47
2022-08-11T07:22:03.732Z,1020.45
2022-08-11T07:22:59.654Z,1020.38
2022-08-11T07:23:58.215Z,1020.37
2022-08-11T07:24:59.400Z,1020.31
2022-08-11T07:25:59.866Z,1020.27
2022-08-11T07:26:58.175Z,1020.25
2022-08-11T07:27:58.187Z,1020.20
2022-08-11T07:28:59.001Z,1020.22
2022-08-11T07:29:58.155Z,1020.20
2022-08-11T07:30:58.156Z,1020.27
2022-08-11T07:31:58.806Z,1020.18
2022-08-11T07:32:58.802Z,1020.21
2022-08-11T07:34:07.161Z,1020.18
2022-08-11T07:34:59.078Z,1020.14
2022-08-11T07:35:58.378Z,1020.13
2022-08-11T07:36:58.118Z,1020.14
2022-08-11T07:38:01.885Z,1020.15
2022-08-11T07:38:58.739Z,1020.14
2022-08-11T07:39:58.757Z,1020.16
2022-08-11T07:40:58.029Z,1020.18
2022-08-11T07:41:58.032Z,1020.14
2022-08-11T07:42:58.061Z,1020.16
2022-08-11T07:43:58.051Z,1020.15
2022-08-11T07:44:58.682Z,1020.14
2022-08-11T07:45:58.662Z,1020.14
2022-08-11T07:46:58.676Z,1020.15
2022-08-11T07:47:57.979Z,1020.15
2022-08-11T07:48:58.631Z,1020.15
2022-08-11T07:49:57.958Z,1020.12
2022-08-11T07:50:57.961Z,1020.13
2022-08-11T07:51:57.928Z,1020.07
2022-08-11T07:52:57.916Z,1020.10
2022-08-11T07:54:07.556Z,1020.09
2022-08-11T07:55:00.521Z,1020.10
2022-08-11T07:55:58.561Z,1020.11
2022-08-11T07:57:08.952Z,1020.08
2022-08-11T07:58:15.195Z,1020.10
2022-08-11T07:59:06.319Z,1020.08
2022-08-11T08:00:04.546Z,1020.04
2022-08-11T08:00:59.209Z,1020.01
2022-08-11T08:01:57.921Z,1020.01
2022-08-11T08:02:57.808Z,1020.05
2022-08-11T08:03:57.790Z,1020.07
2022-08-11T08:04:57.781Z,1020.10
2022-08-11T08:05:57.811Z,1020.12
2022-08-11T08:06:58.459Z,1020.06
2022-08-11T08:07:57.931Z,1020.13
2022-08-11T08:08:58.431Z,1020.06
2022-08-11T08:09:58.434Z,1020.02
2022-08-11T08:10:58.414Z,1211.58
2022-08-11T08:11:58.404Z,1211.58
2022-08-11T08:12:57.745Z,1211.58
2022-08-11T08:13:58.385Z,1211.58
2022-08-11T08:14:58.366Z,1211.58
2022-08-11T08:15:58.355Z,1211.58
2022-08-11T08:16:57.683Z,1211.58
2022-08-11T08:18:09.668Z,1211.58
2022-08-11T08:18:59.333Z,1211.58
2022-08-11T08:19:57.657Z,1211.58
2022-08-11T08:20:58.307Z,1211.58
2022-08-11T08:22:06.041Z,1211.58
2022-08-11T08:22:59.572Z,1211.58
2022-08-11T08:23:57.615Z,1211.58
2022-08-11T08:24:58.269Z,1211.58
2022-08-11T08:25:58.265Z,1211.58
2022-08-11T08:26:58.251Z,1211.58
2022-08-11T08:27:58.249Z,1211.58
2022-08-11T08:28:57.671Z,1211.58
2022-08-11T08:29:57.540Z,1211.58
2022-08-11T08:30:58.202Z,1211.58
2022-08-11T08:31:58.193Z,1211.58
2022-08-11T08:32:57.511Z,1211.58
2022-08-11T08:33:57.513Z,1211.58
2022-08-11T08:34:58.267Z,1211.58
2022-08-11T08:35:58.154Z,1211.58
2022-08-11T08:36:57.491Z,1211.58
2022-08-11T08:37:58.152Z,1211.58
2022-08-11T08:38:57.465Z,1211.58
2022-08-11T08:39:58.177Z,1211.58
2022-08-11T08:40:57.461Z,1211.58
2022-08-11T08:41:58.104Z,1211.58
2022-08-11T08:42:58.088Z,1211.58
2022-08-11T08:44:09.967Z,1211.58
2022-08-11T08:44:58.377Z,1211.58
2022-08-11T08:45:57.386Z,1211.58
2022-08-11T08:46:57.389Z,1211.58
2022-08-11T08:47:57.364Z,1211.58
2022-08-11T08:48:57.348Z,1211.58
2022-08-11T08:49:58.033Z,1211.58
2022-08-11T08:50:58.010Z,1211.58
2022-08-11T08:52:19.353Z,1211.58
2022-08-11T08:52:58.332Z,1211.58
2022-08-11T08:53:58.503Z,1211.58
2022-08-11T08:54:58.000Z,1211.58
2022-08-11T08:55:57.913Z,1211.58
2022-08-11T08:56:57.968Z,1211.58
2022-08-11T08:57:57.946Z,1211.58
2022-08-11T08:58:57.275Z,1211.58
2022-08-11T08:59:57.914Z,1211.58
2022-08-11T09:00:57.967Z,1211.58
2022-08-11T09:01:57.905Z,1211.58
2022-08-11T09:02:57.239Z,1211.58
2022-08-11T09:04:04.922Z,1211.58
2022-08-11T09:04:58.224Z,1211.58
2022-08-11T09:05:57.187Z,1211.58
2022-08-11T09:06:57.165Z,1211.58
2022-08-11T09:07:57.840Z,1211.58
2022-08-11T09:08:57.836Z,1211.58
2022-08-11T09:09:57.825Z,1211.58
2022-08-11T09:10:57.180Z,1211.58
2022-08-11T09:11:57.318Z,1211.58
2022-08-11T09:12:57.796Z,1211.58
2022-08-11T09:14:05.892Z,1211.58
2022-08-11T09:14:58.078Z,1211.58
2022-08-11T09:15:57.769Z,1211.58
2022-08-11T09:16:57.750Z,1211.58
2022-08-11T09:17:57.753Z,1211.58
2022-08-11T09:18:57.087Z,1211.58
2022-08-11T09:19:58.023Z,1211.58
2022-08-11T09:20:57.712Z,1211.58
2022-08-11T09:21:57.031Z,1211.58
2022-08-11T09:23:41.360Z,1211.58
2022-08-11T09:24:08.798Z,1211.58
2022-08-11T09:24:57.991Z,1211.58
2022-08-11T09:25:57.663Z,1211.58
2022-08-11T09:26:57.654Z,1211.58
2022-08-11T09:27:57.646Z,1211.58
2022-08-11T09:28:56.976Z,1211.58
2022-08-11T09:29:56.954Z,1211.58
2022-08-11T09:30:56.927Z,1211.58
2022-08-11T09:31:57.604Z,1211.58
2022-08-11T09:32:57.586Z,1211.58
2022-08-11T09:33:57.578Z,1211.58
2022-08-11T09:34:57.581Z,1211.58
2022-08-11T09:35:57.559Z,1211.58
2022-08-11T09:36:57.560Z,1211.58
2022-08-11T09:37:56.950Z,1211.58
2022-08-11T09:38:57.548Z,1211.58
2022-08-11T09:39:57.581Z,1211.58
2022-08-11T09:40:57.490Z,1211.58
2022-08-11T09:42:03.020Z,1211.58
2022-08-11T09:42:57.841Z,1211.58
2022-08-11T09:43:59.918Z,1211.58
2022-08-11T09:44:57.795Z,1211.58
2022-08-11T09:45:56.797Z,1211.58
2022-08-11T09:46:57.452Z,1211.58
2022-08-11T09:47:56.773Z,1211.58
2022-08-11T09:48:56.755Z,1211.58
2022-08-11T09:49:57.424Z,1211.58
2022-08-11T09:50:56.766Z,1211.58
2022-08-11T09:52:02.309Z,1211.58
2022-08-11T09:53:36.126Z,1211.58
2022-08-11T09:54:02.719Z,1211.58
2022-08-11T09:54:56.686Z,1211.58
2022-08-11T09:55:57.367Z,1211.58
2022-08-11T09:57:00.915Z,1211.58
2022-08-11T09:57:57.648Z,1211.58
2022-08-11T09:58:56.780Z,1211.58
2022-08-11T10:00:12.308Z,1211.58
2022-08-11T10:00:59.022Z,1211.58
2022-08-11T10:01:56.619Z,1211.58
2022-08-11T10:02:57.304Z,1211.58
2022-08-11T10:03:57.290Z,1211.58
2022-08-11T10:04:57.250Z,1211.58
2022-08-11T10:05:57.262Z,1211.58
2022-08-11T10:06:56.571Z,1211.58
2022-08-11T10:07:57.246Z,1211.58
2022-08-11T10:08:57.235Z,1211.58
2022-08-11T10:09:56.755Z,1211.58
2022-08-11T10:10:56.542Z,1211.58
2022-08-11T10:11:57.907Z,1211.58
2022-08-11T10:12:57.187Z,1211.58
2022-08-11T10:14:30.867Z,1211.58
2022-08-11T10:14:58.166Z,1211.58
2022-08-11T10:16:14.841Z,1211.58
2022-08-11T10:16:59.427Z,1211.58
2022-08-11T10:17:57.138Z,1211.58
2022-08-11T10:18:57.127Z,1211.58
2022-08-11T10:20:03.907Z,1211.58
2022-08-11T10:20:57.474Z,1211.58
2022-08-11T10:21:57.128Z,1211.58
2022-08-11T10:22:56.425Z,1211.58
2022-08-11T10:24:00.218Z,1211.58
2022-08-11T10:24:56.390Z,1211.58
2022-08-11T10:25:57.069Z,1211.58
2022-08-11T10:26:56.418Z,1211.58
2022-08-11T10:28:30.800Z,1211.58
2022-08-11T10:29:12.544Z,1211.58
2022-08-11T10:29:58.019Z,1211.58
2022-08-11T10:30:57.019Z,1211.58
2022-08-11T10:31:57.931Z,1211.58
2022-08-11T10:32:59.314Z,1211.58
2022-08-11T10:33:59.387Z,1211.58
2022-08-11T10:34:57.912Z,1211.58
2022-08-11T10:35:56.321Z,1211.58
2022-08-11T10:36:58.224Z,1211.58
2022-08-11T10:38:06.170Z,1211.58
2022-08-11T10:38:58.736Z,1211.58
2022-08-11T10:39:58.229Z,1211.58
2022-08-11T10:40:56.271Z,1211.58
2022-08-11T10:42:06.568Z,1211.58
2022-08-11T10:42:59.372Z,1211.58
2022-08-11T10:44:03.307Z,1211.58
2022-08-11T10:44:57.877Z,1211.58
2022-08-11T10:45:56.914Z,1211.58
2022-08-11T10:46:56.177Z,1211.58
2022-08-11T10:47:56.540Z,1211.58
2022-08-11T10:48:56.828Z,1211.58
2022-08-11T10:49:56.814Z,1211.58
2022-08-11T10:50:56.257Z,1211.58
2022-08-11T10:51:58.903Z,1211.58
2022-08-11T10:52:56.792Z,1211.58
2022-08-11T10:53:56.770Z,1211.58
2022-08-11T10:54:56.762Z,1211.58
2022-08-11T10:55:58.701Z,1211.58
2022-08-11T10:56:56.161Z,1211.58
2022-08-11T10:58:05.034Z,1211.58
2022-08-11T10:59:00.803Z,1211.58
2022-08-11T10:59:57.029Z,1211.58
2022-08-11T11:00:57.989Z,1211.58
2022-08-11T11:01:56.692Z,1211.58
2022-08-11T11:03:07.132Z,1211.58
2022-08-11T11:03:57.025Z,1211.58
2022-08-11T11:04:57.914Z,1211.58
2022-08-11T11:06:13.282Z,1211.58
2022-08-11T11:06:58.463Z,1211.58
2022-08-11T11:07:55.963Z,1211.58
2022-08-11T11:09:00.049Z,1211.58
2022-08-11T11:09:56.947Z,1211.58
2022-08-11T11:10:55.947Z,1211.58
2022-08-11T11:11:55.927Z,1211.58
2022-08-11T11:12:55.945Z,1211.58
2022-08-11T11:13:57.347Z,1211.58
2022-08-11T11:14:59.141Z,1211.58
2022-08-11T11:15:56.577Z,1211.58
2022-08-11T11:16:55.863Z,1211.58
2022-08-11T11:17:55.880Z,1211.58
2022-08-11T11:19:00.898Z,1211.58
2022-08-11T11:19:56.898Z,1211.58
2022-08-11T11:20:57.780Z,1211.58
2022-08-11T11:21:55.803Z,1211.58
2022-08-11T11:22:55.814Z,1211.58
2022-08-11T11:23:56.462Z,1211.58
2022-08-11T11:24:56.466Z,1211.58
2022-08-11T11:25:57.292Z,1211.58
2022-08-11T11:26:58.203Z,1211.58
2022-08-11T11:27:55.749Z,1211.58
2022-08-11T11:28:56.425Z,1211.58
2022-08-11T11:29:56.571Z,1211.58
2022-08-11T11:30:56.405Z,1211.58
2022-08-11T11:31:56.377Z,1211.58
2022-08-11T11:32:56.404Z,1211.58
2022-08-11T11:34:06.836Z,1211.58
2022-08-11T11:34:59.112Z,1211.58
2022-08-11T11:35:57.141Z,1211.58
2022-08-11T11:36:56.337Z,1211.58
2022-08-11T11:37:57.139Z,1211.58
2022-08-11T11:38:56.647Z,1211.58
2022-08-11T11:39:55.639Z,1211.58
2022-08-11T11:40:55.639Z,1211.58
2022-08-11T11:41:56.280Z,1211.58
2022-08-11T11:42:55.600Z,1211.58
2022-08-11T11:43:56.261Z,1211.58
2022-08-11T11:44:56.737Z,1211.58
2022-08-11T11:45:56.251Z,1211.58
2022-08-11T11:46:56.741Z,1211.58
2022-08-11T11:47:56.221Z,1211.58
2022-08-11T11:48:56.476Z,1211.58
2022-08-11T11:49:56.309Z,1211.58
2022-08-11T11:50:58.161Z,1211.58
2022-08-11T11:51:56.868Z,1211.58
2022-08-11T11:52:56.174Z,1211.58
2022-08-11T11:53:56.191Z,1211.58
2022-08-11T11:54:55.483Z,1211.58
2022-08-11T11:55:55.486Z,1211.58
2022-08-11T11:56:56.147Z,1211.58
2022-08-11T11:57:59.055Z,1211.58
2022-08-11T11:58:55.448Z,1211.58
2022-08-11T11:59:56.109Z,1211.58
2022-08-11T12:00:55.468Z,1211.58
2022-08-11T12:01:56.088Z,1211.58
2022-08-11T12:02:56.102Z,1211.58
2022-08-11T12:03:55.378Z,1211.58
2022-08-11T12:04:55.378Z,1211.58